Decoded Metar for KBKW (BECKLEY in WV, USA) (IATA:BKW) | Meteo·Mobile Aviation Weather
aviador You're here:

KBKW Decoded Metar

BECKLEY in WV, USA
Report Time2019-01-18 14:12:00
UTC Time2019-01-18 14:45:03
Flight Rules ifr IFR
Wind320° at 05 kt
W.Decomp.*RWY 01: 3.6 kt HW 3.5 kt LCW
RWY 28: 3.5 kt HW 3.6 kt RCW
W.Rank320° ranks 13
Current wind is below 320° avg. (7.9)
Visibility6437 m
Phenomena:Mist
Clouds:Broken 006 Hf
Overcast 012 Hf
Ceiling600 ft
Temp02°C (ISA -8)
Dew Point02°C (100% RH)
AAT-1.5°C
QNH1018 hPa
Density Alt1,473 ft
Elevation2,507 ft
Report Wrong Elevation
Raw Report
KBKW 181412Z AUTO 32005KT 4SM BR BKN006 OVC012 02/02 A3005=

Extra information for KBKW:More info

Metar Taf Metar & Taf Last 4 Metars F.Rules Stats Wind Profile Meteogram Temp Stats Airport Information Weather charts Add Link Nearby VenuesMetar ALERT Operation Metar Decoded Social comments

AIRNAV info for KBKW